| Date | Time | Temp. (oF) | Dew Point (oF) | Rel. Hum. (%) | Press. (in.) | Wind Dir. | Wind Speed (mph) | Hourly Rainfall (in.) |
|
|---|---|---|---|---|---|---|---|---|---|
| 1 | 11/21 | 00:00 | 33 | 24 | 71 | 30.11 | SSE | 0 | 0.00 |
| 2 | 11/20 | 23:00 | 32 | 23 | 70 | 30.12 | SE | 1 | 0.00 |
| 3 | 11/20 | 22:00 | 34 | 23 | 64 | 30.12 | SSW | 2 | 0.00 |
| 4 | 11/20 | 21:00 | 36 | 24 | 63 | 30.12 | SSW | 2 | 0.00 |
| 5 | 11/20 | 20:00 | 37 | 23 | 57 | 30.12 | SSW | 3 | 0.00 |
| 6 | 11/20 | 19:00 | 39 | 22 | 51 | 30.12 | SSW | 4 | 0.00 |
| 7 | 11/20 | 18:00 | 41 | 23 | 49 | 30.11 | SSW | 4 | 0.00 |
| 8 | 11/20 | 17:00 | 42 | 22 | 46 | 30.10 | SW | 4 | 0.00 |
| 9 | 11/20 | 16:00 | 44 | 22 | 43 | 30.10 | SSW | 8 | 0.00 |
| 10 | 11/20 | 15:00 | 44 | 23 | 44 | 30.08 | WSW | 8 | 0.00 |
| 11 | 11/20 | 14:00 | 45 | 23 | 43 | 30.08 | SSW | 3 | 0.00 |
| 12 | 11/20 | 13:00 | 44 | 24 | 46 | 30.09 | SW | 7 | 0.00 |
| 13 | 11/20 | 12:00 | 43 | 24 | 48 | 30.10 | SSW | 12 | 0.00 |
| 14 | 11/20 | 11:00 | 41 | 23 | 50 | 30.12 | WNW | 13 | 0.00 |
| 15 | 11/20 | 10:00 | 40 | 22 | 50 | 30.13 | WNW | 12 | 0.00 |
| 16 | 11/20 | 09:00 | 37 | 20 | 50 | 30.12 | SW | 13 | 0.00 |
| 17 | 11/20 | 08:00 | 34 | 20 | 57 | 30.11 | SE | 3 | 0.00 |
| 18 | 11/20 | 07:00 | 32 | 18 | 57 | 30.08 | SW | 5 | 0.00 |
| 19 | 11/20 | 06:00 | 32 | 20 | 62 | 30.05 | SSW | 4 | 0.00 |
| 20 | 11/20 | 05:00 | 32 | 20 | 63 | 30.02 | SW | 3 | 0.00 |
| 21 | 11/20 | 04:00 | 34 | 21 | 61 | 29.99 | WNW | 4 | 0.00 |
| 22 | 11/20 | 03:00 | 35 | 24 | 65 | 29.97 | SW | 5 | 0.00 |
| 23 | 11/20 | 02:00 | 35 | 24 | 66 | 29.95 | SW | 3 | 0.00 |
| 24 | 11/20 | 01:00 | 35 | 25 | 68 | 29.92 | W | 3 | 0.00 |